sensor_id;sensor_type;location;lat;lon;timestamp;P1;durP1;ratioP1;P2;durP2;ratioP2
49582;SDS011;36329;48.816;44.624;2023-06-22T00:01:21;3.3;;;1.8;;
49582;SDS011;36329;48.816;44.624;2023-06-22T00:04:24;4;;;1.9;;
49582;SDS011;36329;48.816;44.624;2023-06-22T00:07:26;2.1;;;1.7;;
49582;SDS011;36329;48.816;44.624;2023-06-22T00:10:28;5.1;;;1.9;;
49582;SDS011;36329;48.816;44.624;2023-06-22T00:13:29;2.2;;;1.7;;
49582;SDS011;36329;48.816;44.624;2023-06-22T00:16:32;4.7;;;1.9;;
49582;SDS011;36329;48.816;44.624;2023-06-22T00:19:34;4.1;;;1.9;;
49582;SDS011;36329;48.816;44.624;2023-06-22T00:22:36;3.5;;;2.1;;
49582;SDS011;36329;48.816;44.624;2023-06-22T00:25:39;3.6;;;2;;
49582;SDS011;36329;48.816;44.624;2023-06-22T00:28:41;7.4;;;1.7;;
49582;SDS011;36329;48.816;44.624;2023-06-22T00:31:43;4.4;;;1.9;;
49582;SDS011;36329;48.816;44.624;2023-06-22T00:34:45;5;;;1.9;;
49582;SDS011;36329;48.816;44.624;2023-06-22T00:37:47;3.2;;;1.7;;
49582;SDS011;36329;48.816;44.624;2023-06-22T00:40:49;3.3;;;1.6;;
49582;SDS011;36329;48.816;44.624;2023-06-22T00:43:50;3;;;1.7;;
49582;SDS011;36329;48.816;44.624;2023-06-22T00:46:52;6.5;;;1.8;;
49582;SDS011;36329;48.816;44.624;2023-06-22T00:49:55;4.3;;;1.7;;
49582;SDS011;36329;48.816;44.624;2023-06-22T00:52:57;3.2;;;1.6;;
49582;SDS011;36329;48.816;44.624;2023-06-22T00:56:01;3.1;;;1.8;;
49582;SDS011;36329;48.816;44.624;2023-06-22T00:59:04;4.5;;;1.8;;
49582;SDS011;36329;48.816;44.624;2023-06-22T01:02:06;2.5;;;1.5;;
49582;SDS011;36329;48.816;44.624;2023-06-22T01:05:08;3.4;;;1.8;;
49582;SDS011;36329;48.816;44.624;2023-06-22T01:08:19;4.7;;;1.7;;
49582;SDS011;36329;48.816;44.624;2023-06-22T01:11:31;3.1;;;1.7;;
49582;SDS011;36329;48.816;44.624;2023-06-22T01:14:39;2.1;;;1.5;;
49582;SDS011;36329;48.816;44.624;2023-06-22T01:17:45;2.5;;;1.7;;
49582;SDS011;36329;48.816;44.624;2023-06-22T01:20:49;2.6;;;1.7;;
49582;SDS011;36329;48.816;44.624;2023-06-22T01:23:56;4.2;;;1.9;;
49582;SDS011;36329;48.816;44.624;2023-06-22T01:30:30;4.9;;;1.7;;
49582;SDS011;36329;48.816;44.624;2023-06-22T01:33:34;3.8;;;1.8;;
49582;SDS011;36329;48.816;44.624;2023-06-22T01:36:38;5.5;;;1.8;;
49582;SDS011;36329;48.816;44.624;2023-06-22T01:39:41;4.6;;;2;;
49582;SDS011;36329;48.816;44.624;2023-06-22T01:42:44;3;;;1.6;;
49582;SDS011;36329;48.816;44.624;2023-06-22T01:45:46;4.2;;;2.1;;
49582;SDS011;36329;48.816;44.624;2023-06-22T01:48:48;3.1;;;1.9;;
49582;SDS011;36329;48.816;44.624;2023-06-22T01:51:52;3.4;;;1.7;;
49582;SDS011;36329;48.816;44.624;2023-06-22T01:54:54;4.3;;;1.7;;
49582;SDS011;36329;48.816;44.624;2023-06-22T01:57:56;3.3;;;1.7;;
49582;SDS011;36329;48.816;44.624;2023-06-22T02:00:58;3.2;;;1.9;;
49582;SDS011;36329;48.816;44.624;2023-06-22T02:04:12;6.2;;;2.3;;
49582;SDS011;36329;48.816;44.624;2023-06-22T02:07:19;6.4;;;3;;
49582;SDS011;36329;48.816;44.624;2023-06-22T02:10:24;7.9;;;3.8;;
49582;SDS011;36329;48.816;44.624;2023-06-22T02:13:27;9.8;;;4.5;;
49582;SDS011;36329;48.816;44.624;2023-06-22T02:16:30;8.3;;;4.4;;
49582;SDS011;36329;48.816;44.624;2023-06-22T02:19:35;5.2;;;2.9;;
49582;SDS011;36329;48.816;44.624;2023-06-22T02:22:37;8;;;2.4;;
49582;SDS011;36329;48.816;44.624;2023-06-22T02:25:39;4;;;2.1;;
49582;SDS011;36329;48.816;44.624;2023-06-22T02:28:41;7;;;1.8;;
49582;SDS011;36329;48.816;44.624;2023-06-22T02:31:43;5.1;;;2.1;;
49582;SDS011;36329;48.816;44.624;2023-06-22T02:34:45;3.7;;;1.8;;
49582;SDS011;36329;48.816;44.624;2023-06-22T02:37:47;3.6;;;1.9;;
49582;SDS011;36329;48.816;44.624;2023-06-22T02:40:49;3.2;;;1.8;;
49582;SDS011;36329;48.816;44.624;2023-06-22T02:43:51;5.3;;;1.8;;
49582;SDS011;36329;48.816;44.624;2023-06-22T02:46:54;3;;;1.7;;
49582;SDS011;36329;48.816;44.624;2023-06-22T02:49:55;4.4;;;1.8;;
49582;SDS011;36329;48.816;44.624;2023-06-22T02:52:57;3;;;1.8;;
49582;SDS011;36329;48.816;44.624;2023-06-22T02:56:00;2.6;;;1.8;;
49582;SDS011;36329;48.816;44.624;2023-06-22T02:59:02;3.1;;;1.8;;
49582;SDS011;36329;48.816;44.624;2023-06-22T03:02:04;3.6;;;1.5;;
49582;SDS011;36329;48.816;44.624;2023-06-22T03:05:06;7.1;;;1.7;;
49582;SDS011;36329;48.816;44.624;2023-06-22T03:08:08;4.5;;;2;;
49582;SDS011;36329;48.816;44.624;2023-06-22T03:11:10;5.9;;;1.8;;
49582;SDS011;36329;48.816;44.624;2023-06-22T03:14:12;3.4;;;2;;
49582;SDS011;36329;48.816;44.624;2023-06-22T03:17:14;4.3;;;2;;
49582;SDS011;36329;48.816;44.624;2023-06-22T03:20:16;6.2;;;2.8;;
49582;SDS011;36329;48.816;44.624;2023-06-22T03:23:18;7;;;2.1;;
49582;SDS011;36329;48.816;44.624;2023-06-22T03:26:20;5.4;;;2;;
49582;SDS011;36329;48.816;44.624;2023-06-22T03:29:22;3.4;;;1.6;;
49582;SDS011;36329;48.816;44.624;2023-06-22T03:32:24;3.2;;;1.5;;
49582;SDS011;36329;48.816;44.624;2023-06-22T03:35:26;4.1;;;1.8;;
49582;SDS011;36329;48.816;44.624;2023-06-22T03:38:28;3.8;;;1.6;;
49582;SDS011;36329;48.816;44.624;2023-06-22T03:41:30;3.9;;;1.6;;
49582;SDS011;36329;48.816;44.624;2023-06-22T03:44:32;4.3;;;2;;
49582;SDS011;36329;48.816;44.624;2023-06-22T03:47:34;5.4;;;1.8;;
49582;SDS011;36329;48.816;44.624;2023-06-22T03:50:37;7.2;;;2;;
49582;SDS011;36329;48.816;44.624;2023-06-22T03:53:39;4.8;;;2.4;;
49582;SDS011;36329;48.816;44.624;2023-06-22T03:56:41;4.2;;;1.8;;
49582;SDS011;36329;48.816;44.624;2023-06-22T03:59:43;6.6;;;1.7;;
49582;SDS011;36329;48.816;44.624;2023-06-22T04:02:44;3.9;;;2;;
49582;SDS011;36329;48.816;44.624;2023-06-22T04:05:47;3.5;;;1.9;;
49582;SDS011;36329;48.816;44.624;2023-06-22T04:08:49;5.2;;;1.8;;
49582;SDS011;36329;48.816;44.624;2023-06-22T04:11:51;5.2;;;1.8;;
49582;SDS011;36329;48.816;44.624;2023-06-22T04:14:53;3;;;2;;
49582;SDS011;36329;48.816;44.624;2023-06-22T04:17:55;9.6;;;1.9;;
49582;SDS011;36329;48.816;44.624;2023-06-22T04:20:58;4.2;;;1.6;;
49582;SDS011;36329;48.816;44.624;2023-06-22T04:24:00;3.2;;;2;;
49582;SDS011;36329;48.816;44.624;2023-06-22T04:27:02;3.9;;;2.1;;
49582;SDS011;36329;48.816;44.624;2023-06-22T04:30:05;5.3;;;2;;
49582;SDS011;36329;48.816;44.624;2023-06-22T04:33:07;3.5;;;1.8;;
49582;SDS011;36329;48.816;44.624;2023-06-22T04:36:09;5.9;;;1.7;;
49582;SDS011;36329;48.816;44.624;2023-06-22T04:39:11;7.4;;;1.8;;
49582;SDS011;36329;48.816;44.624;2023-06-22T04:42:13;2.9;;;1.6;;
49582;SDS011;36329;48.816;44.624;2023-06-22T04:45:15;5;;;1.6;;
49582;SDS011;36329;48.816;44.624;2023-06-22T04:48:17;2.8;;;1.6;;
49582;SDS011;36329;48.816;44.624;2023-06-22T04:51:19;4.2;;;1.8;;
49582;SDS011;36329;48.816;44.624;2023-06-22T04:54:21;3.3;;;1.9;;
49582;SDS011;36329;48.816;44.624;2023-06-22T04:57:23;3.9;;;1.8;;
49582;SDS011;36329;48.816;44.624;2023-06-22T05:00:25;2.5;;;1.7;;
49582;SDS011;36329;48.816;44.624;2023-06-22T05:03:27;3.2;;;1.6;;
49582;SDS011;36329;48.816;44.624;2023-06-22T05:06:29;3.6;;;1.7;;
49582;SDS011;36329;48.816;44.624;2023-06-22T05:09:31;3.4;;;1.7;;
49582;SDS011;36329;48.816;44.624;2023-06-22T05:12:34;3.2;;;1.7;;
49582;SDS011;36329;48.816;44.624;2023-06-22T05:15:36;5.5;;;1.6;;
49582;SDS011;36329;48.816;44.624;2023-06-22T05:18:38;4.3;;;1.6;;
49582;SDS011;36329;48.816;44.624;2023-06-22T05:21:41;3.4;;;1.8;;
49582;SDS011;36329;48.816;44.624;2023-06-22T05:24:43;3.3;;;1.5;;
49582;SDS011;36329;48.816;44.624;2023-06-22T05:27:45;4.4;;;1.8;;
49582;SDS011;36329;48.816;44.624;2023-06-22T05:30:47;2.6;;;1.5;;
49582;SDS011;36329;48.816;44.624;2023-06-22T05:33:50;7.3;;;1.7;;
49582;SDS011;36329;48.816;44.624;2023-06-22T05:36:53;3.8;;;1.4;;
49582;SDS011;36329;48.816;44.624;2023-06-22T05:39:55;2.8;;;1.6;;
49582;SDS011;36329;48.816;44.624;2023-06-22T05:42:57;2.7;;;1.7;;
49582;SDS011;36329;48.816;44.624;2023-06-22T05:45:59;4.2;;;1.6;;
49582;SDS011;36329;48.816;44.624;2023-06-22T05:49:02;2.6;;;1.8;;
49582;SDS011;36329;48.816;44.624;2023-06-22T05:52:04;3.5;;;1.6;;
49582;SDS011;36329;48.816;44.624;2023-06-22T05:55:06;4.8;;;1.7;;
49582;SDS011;36329;48.816;44.624;2023-06-22T05:58:08;5.3;;;1.9;;
49582;SDS011;36329;48.816;44.624;2023-06-22T06:01:10;4.4;;;1.7;;
49582;SDS011;36329;48.816;44.624;2023-06-22T06:04:12;4.3;;;1.7;;
49582;SDS011;36329;48.816;44.624;2023-06-22T06:07:14;3.4;;;1.7;;
49582;SDS011;36329;48.816;44.624;2023-06-22T06:10:16;4.3;;;1.5;;
49582;SDS011;36329;48.816;44.624;2023-06-22T06:13:19;2.5;;;1.6;;
49582;SDS011;36329;48.816;44.624;2023-06-22T06:16:21;6.1;;;1.7;;
49582;SDS011;36329;48.816;44.624;2023-06-22T06:19:23;3.3;;;1.7;;
49582;SDS011;36329;48.816;44.624;2023-06-22T06:22:25;4.6;;;1.8;;
49582;SDS011;36329;48.816;44.624;2023-06-22T06:25:27;4.4;;;1.4;;
49582;SDS011;36329;48.816;44.624;2023-06-22T06:28:29;2.6;;;1.4;;
49582;SDS011;36329;48.816;44.624;2023-06-22T06:31:31;6.4;;;1.6;;
49582;SDS011;36329;48.816;44.624;2023-06-22T06:34:33;6.6;;;1.7;;
49582;SDS011;36329;48.816;44.624;2023-06-22T06:37:37;5.3;;;1.7;;
49582;SDS011;36329;48.816;44.624;2023-06-22T06:40:41;7;;;1.5;;
49582;SDS011;36329;48.816;44.624;2023-06-22T06:43:43;2.6;;;1.3;;
49582;SDS011;36329;48.816;44.624;2023-06-22T06:46:45;32.1;;;2.2;;
49582;SDS011;36329;48.816;44.624;2023-06-22T06:49:46;4.4;;;1.8;;
49582;SDS011;36329;48.816;44.624;2023-06-22T06:52:49;3.1;;;1.3;;
49582;SDS011;36329;48.816;44.624;2023-06-22T06:55:51;5.2;;;1.8;;
49582;SDS011;36329;48.816;44.624;2023-06-22T06:58:53;6.3;;;1.6;;
49582;SDS011;36329;48.816;44.624;2023-06-22T07:01:55;4.4;;;1.2;;
49582;SDS011;36329;48.816;44.624;2023-06-22T07:04:57;3.4;;;1.5;;
49582;SDS011;36329;48.816;44.624;2023-06-22T07:07:59;3.3;;;1.6;;
49582;SDS011;36329;48.816;44.624;2023-06-22T07:11:01;3.5;;;1.4;;
49582;SDS011;36329;48.816;44.624;2023-06-22T07:14:04;3.5;;;1.3;;
49582;SDS011;36329;48.816;44.624;2023-06-22T07:17:06;2.7;;;1.5;;
49582;SDS011;36329;48.816;44.624;2023-06-22T07:20:08;5.9;;;1.4;;
49582;SDS011;36329;48.816;44.624;2023-06-22T07:23:11;3.3;;;1.3;;
49582;SDS011;36329;48.816;44.624;2023-06-22T07:26:13;7.5;;;1.6;;
49582;SDS011;36329;48.816;44.624;2023-06-22T07:29:15;3.9;;;1.3;;
49582;SDS011;36329;48.816;44.624;2023-06-22T07:32:17;3;;;1.7;;
49582;SDS011;36329;48.816;44.624;2023-06-22T07:35:19;5.5;;;1.6;;
49582;SDS011;36329;48.816;44.624;2023-06-22T07:38:21;3.9;;;1.7;;
49582;SDS011;36329;48.816;44.624;2023-06-22T07:41:23;3.8;;;1.7;;
49582;SDS011;36329;48.816;44.624;2023-06-22T07:44:25;2.9;;;1.5;;
49582;SDS011;36329;48.816;44.624;2023-06-22T07:47:27;3.8;;;1.6;;
49582;SDS011;36329;48.816;44.624;2023-06-22T07:50:29;3.9;;;1.5;;
49582;SDS011;36329;48.816;44.624;2023-06-22T07:53:31;4.9;;;1.7;;
49582;SDS011;36329;48.816;44.624;2023-06-22T07:56:33;3.6;;;1.6;;
49582;SDS011;36329;48.816;44.624;2023-06-22T07:59:36;7.1;;;1.5;;
49582;SDS011;36329;48.816;44.624;2023-06-22T08:02:38;2.8;;;1.5;;
49582;SDS011;36329;48.816;44.624;2023-06-22T08:05:40;2.4;;;1.6;;
49582;SDS011;36329;48.816;44.624;2023-06-22T08:08:42;5.7;;;1.8;;
49582;SDS011;36329;48.816;44.624;2023-06-22T08:11:44;4.1;;;1.5;;
49582;SDS011;36329;48.816;44.624;2023-06-22T08:14:46;3.1;;;1.8;;
49582;SDS011;36329;48.816;44.624;2023-06-22T08:17:48;2.6;;;1.4;;
49582;SDS011;36329;48.816;44.624;2023-06-22T08:20:51;3;;;1.5;;
49582;SDS011;36329;48.816;44.624;2023-06-22T08:23:53;3.9;;;1.8;;
49582;SDS011;36329;48.816;44.624;2023-06-22T08:26:55;6;;;1.9;;
49582;SDS011;36329;48.816;44.624;2023-06-22T08:29:57;4.5;;;1.8;;
49582;SDS011;36329;48.816;44.624;2023-06-22T08:32:59;2.4;;;1.8;;
49582;SDS011;36329;48.816;44.624;2023-06-22T08:36:01;3.3;;;1.6;;
49582;SDS011;36329;48.816;44.624;2023-06-22T08:39:03;3;;;1.7;;
49582;SDS011;36329;48.816;44.624;2023-06-22T08:42:05;3.3;;;1.5;;
49582;SDS011;36329;48.816;44.624;2023-06-22T08:45:08;3.8;;;1.6;;
49582;SDS011;36329;48.816;44.624;2023-06-22T08:48:10;2.3;;;1.8;;
49582;SDS011;36329;48.816;44.624;2023-06-22T08:51:12;5.5;;;1.9;;
49582;SDS011;36329;48.816;44.624;2023-06-22T08:54:14;3.7;;;1.7;;
49582;SDS011;36329;48.816;44.624;2023-06-22T08:57:16;2.2;;;1.5;;
49582;SDS011;36329;48.816;44.624;2023-06-22T09:00:18;2.2;;;1.6;;
49582;SDS011;36329;48.816;44.624;2023-06-22T09:03:21;4.4;;;1.6;;
49582;SDS011;36329;48.816;44.624;2023-06-22T09:06:23;3.1;;;1.3;;
49582;SDS011;36329;48.816;44.624;2023-06-22T09:09:25;2.8;;;1.5;;
49582;SDS011;36329;48.816;44.624;2023-06-22T09:12:27;2.5;;;1.5;;
49582;SDS011;36329;48.816;44.624;2023-06-22T09:15:29;2.6;;;1.7;;
49582;SDS011;36329;48.816;44.624;2023-06-22T09:18:33;3.6;;;1.3;;
49582;SDS011;36329;48.816;44.624;2023-06-22T09:21:35;2.6;;;1.6;;
49582;SDS011;36329;48.816;44.624;2023-06-22T09:24:37;2;;;1.8;;
49582;SDS011;36329;48.816;44.624;2023-06-22T09:27:39;3.5;;;1.7;;
49582;SDS011;36329;48.816;44.624;2023-06-22T09:30:42;4.4;;;1.5;;
49582;SDS011;36329;48.816;44.624;2023-06-22T09:33:45;2.9;;;1.5;;
49582;SDS011;36329;48.816;44.624;2023-06-22T09:36:47;2.3;;;1.5;;
49582;SDS011;36329;48.816;44.624;2023-06-22T09:39:49;2.2;;;1.7;;
49582;SDS011;36329;48.816;44.624;2023-06-22T09:42:51;1.3;;;1.2;;
49582;SDS011;36329;48.816;44.624;2023-06-22T09:45:53;3;;;1.5;;
49582;SDS011;36329;48.816;44.624;2023-06-22T09:48:55;2.3;;;1.5;;
49582;SDS011;36329;48.816;44.624;2023-06-22T09:51:57;2.5;;;1.6;;
49582;SDS011;36329;48.816;44.624;2023-06-22T09:54:58;2.9;;;1.4;;
49582;SDS011;36329;48.816;44.624;2023-06-22T09:58:00;2.2;;;1.3;;
49582;SDS011;36329;48.816;44.624;2023-06-22T10:01:02;3.8;;;1.4;;
49582;SDS011;36329;48.816;44.624;2023-06-22T10:04:04;4.3;;;1.1;;
49582;SDS011;36329;48.816;44.624;2023-06-22T10:07:06;4.1;;;1.5;;
49582;SDS011;36329;48.816;44.624;2023-06-22T10:10:08;5.7;;;1.7;;
49582;SDS011;36329;48.816;44.624;2023-06-22T10:13:11;3.1;;;1.6;;
49582;SDS011;36329;48.816;44.624;2023-06-22T10:16:12;3.1;;;1.4;;
49582;SDS011;36329;48.816;44.624;2023-06-22T10:19:15;3.5;;;1.4;;
49582;SDS011;36329;48.816;44.624;2023-06-22T10:22:17;4.6;;;1.4;;
49582;SDS011;36329;48.816;44.624;2023-06-22T10:25:19;3.4;;;1.3;;
49582;SDS011;36329;48.816;44.624;2023-06-22T10:28:21;3;;;1.7;;
49582;SDS011;36329;48.816;44.624;2023-06-22T10:31:23;2.5;;;1.4;;
49582;SDS011;36329;48.816;44.624;2023-06-22T10:34:24;3.4;;;1.6;;
49582;SDS011;36329;48.816;44.624;2023-06-22T10:37:26;2.5;;;1.6;;
49582;SDS011;36329;48.816;44.624;2023-06-22T10:40:28;3.6;;;1.5;;
49582;SDS011;36329;48.816;44.624;2023-06-22T10:43:30;5.3;;;1.7;;
49582;SDS011;36329;48.816;44.624;2023-06-22T10:46:32;3.8;;;1.8;;
49582;SDS011;36329;48.816;44.624;2023-06-22T10:49:34;2.9;;;1.8;;
49582;SDS011;36329;48.816;44.624;2023-06-22T10:52:36;3.7;;;1.9;;
49582;SDS011;36329;48.816;44.624;2023-06-22T10:55:38;4.9;;;1.7;;
49582;SDS011;36329;48.816;44.624;2023-06-22T10:58:40;2.9;;;1.4;;
49582;SDS011;36329;48.816;44.624;2023-06-22T11:01:42;2.3;;;1.5;;
49582;SDS011;36329;48.816;44.624;2023-06-22T11:04:44;3;;;1.5;;
49582;SDS011;36329;48.816;44.624;2023-06-22T11:07:46;3;;;1.4;;
49582;SDS011;36329;48.816;44.624;2023-06-22T11:10:48;3.1;;;1.6;;
49582;SDS011;36329;48.816;44.624;2023-06-22T11:13:50;4.9;;;1.4;;
49582;SDS011;36329;48.816;44.624;2023-06-22T11:16:52;1.4;;;1.3;;
49582;SDS011;36329;48.816;44.624;2023-06-22T11:19:53;5.1;;;1.6;;
49582;SDS011;36329;48.816;44.624;2023-06-22T11:22:56;5.3;;;1.5;;
49582;SDS011;36329;48.816;44.624;2023-06-22T11:25:58;3.8;;;1.4;;
49582;SDS011;36329;48.816;44.624;2023-06-22T11:29:00;3;;;1.5;;
49582;SDS011;36329;48.816;44.624;2023-06-22T11:32:02;3.1;;;1.5;;
49582;SDS011;36329;48.816;44.624;2023-06-22T11:35:04;2.3;;;1.7;;
49582;SDS011;36329;48.816;44.624;2023-06-22T11:38:07;3.7;;;1.5;;
49582;SDS011;36329;48.816;44.624;2023-06-22T11:41:09;3.9;;;1.4;;
49582;SDS011;36329;48.816;44.624;2023-06-22T11:44:12;1.7;;;1.4;;
49582;SDS011;36329;48.816;44.624;2023-06-22T11:47:13;2.6;;;1.4;;
49582;SDS011;36329;48.816;44.624;2023-06-22T11:50:15;4.6;;;1.7;;
49582;SDS011;36329;48.816;44.624;2023-06-22T11:53:17;6.1;;;1.7;;
49582;SDS011;36329;48.816;44.624;2023-06-22T11:56:20;4.2;;;2;;
49582;SDS011;36329;48.816;44.624;2023-06-22T11:59:22;4.6;;;2;;
49582;SDS011;36329;48.816;44.624;2023-06-22T12:02:24;2.6;;;1.8;;
49582;SDS011;36329;48.816;44.624;2023-06-22T12:05:26;3.5;;;1.6;;
49582;SDS011;36329;48.816;44.624;2023-06-22T12:08:28;3.4;;;2;;
49582;SDS011;36329;48.816;44.624;2023-06-22T12:11:30;4.8;;;1.8;;
49582;SDS011;36329;48.816;44.624;2023-06-22T12:14:32;8.1;;;1.8;;
49582;SDS011;36329;48.816;44.624;2023-06-22T12:17:34;3.5;;;1.6;;
49582;SDS011;36329;48.816;44.624;2023-06-22T12:20:37;4.3;;;2.1;;
49582;SDS011;36329;48.816;44.624;2023-06-22T12:23:39;6.2;;;1.9;;
49582;SDS011;36329;48.816;44.624;2023-06-22T12:26:41;4.9;;;2.1;;
49582;SDS011;36329;48.816;44.624;2023-06-22T12:29:45;3.3;;;1.5;;
49582;SDS011;36329;48.816;44.624;2023-06-22T12:32:46;5;;;1.6;;
49582;SDS011;36329;48.816;44.624;2023-06-22T12:35:48;2.7;;;1.5;;
49582;SDS011;36329;48.816;44.624;2023-06-22T12:38:50;3.2;;;1.5;;
49582;SDS011;36329;48.816;44.624;2023-06-22T12:41:52;1.9;;;1.5;;
49582;SDS011;36329;48.816;44.624;2023-06-22T12:44:54;5.3;;;1.4;;
49582;SDS011;36329;48.816;44.624;2023-06-22T12:47:56;4;;;1.5;;
49582;SDS011;36329;48.816;44.624;2023-06-22T12:50:59;2.8;;;1.4;;
49582;SDS011;36329;48.816;44.624;2023-06-22T12:54:01;2.9;;;1.6;;
49582;SDS011;36329;48.816;44.624;2023-06-22T12:57:03;3.5;;;1.6;;
49582;SDS011;36329;48.816;44.624;2023-06-22T13:00:07;4.8;;;1.7;;
49582;SDS011;36329;48.816;44.624;2023-06-22T13:03:10;7.7;;;1.7;;
49582;SDS011;36329;48.816;44.624;2023-06-22T13:06:12;3.5;;;1.5;;
49582;SDS011;36329;48.816;44.624;2023-06-22T13:09:14;3.6;;;1.7;;
49582;SDS011;36329;48.816;44.624;2023-06-22T13:12:17;3.9;;;1.7;;
49582;SDS011;36329;48.816;44.624;2023-06-22T13:15:19;3.6;;;1.8;;
49582;SDS011;36329;48.816;44.624;2023-06-22T13:18:21;7.6;;;1.7;;
49582;SDS011;36329;48.816;44.624;2023-06-22T13:21:23;3.8;;;1.6;;
49582;SDS011;36329;48.816;44.624;2023-06-22T13:24:26;3.4;;;1.5;;
49582;SDS011;36329;48.816;44.624;2023-06-22T13:27:29;5.1;;;1.6;;
49582;SDS011;36329;48.816;44.624;2023-06-22T13:30:31;6.4;;;1.6;;
49582;SDS011;36329;48.816;44.624;2023-06-22T13:33:33;6.4;;;1.6;;
49582;SDS011;36329;48.816;44.624;2023-06-22T13:36:35;4;;;1.9;;
49582;SDS011;36329;48.816;44.624;2023-06-22T13:39:37;2.8;;;1.6;;
49582;SDS011;36329;48.816;44.624;2023-06-22T13:42:39;3.9;;;1.8;;
49582;SDS011;36329;48.816;44.624;2023-06-22T13:45:41;5.9;;;3.6;;
49582;SDS011;36329;48.816;44.624;2023-06-22T13:48:43;10.1;;;6.3;;
49582;SDS011;36329;48.816;44.624;2023-06-22T13:51:45;6.8;;;2.9;;
49582;SDS011;36329;48.816;44.624;2023-06-22T13:54:47;7.5;;;2.2;;
49582;SDS011;36329;48.816;44.624;2023-06-22T13:57:49;2.7;;;1.8;;
49582;SDS011;36329;48.816;44.624;2023-06-22T14:00:51;4.4;;;2.1;;
49582;SDS011;36329;48.816;44.624;2023-06-22T14:03:53;3.2;;;1.9;;
49582;SDS011;36329;48.816;44.624;2023-06-22T14:06:54;4;;;1.9;;
49582;SDS011;36329;48.816;44.624;2023-06-22T14:09:56;2.8;;;1.6;;
49582;SDS011;36329;48.816;44.624;2023-06-22T14:12:58;3.7;;;1.8;;
49582;SDS011;36329;48.816;44.624;2023-06-22T14:16:00;3.1;;;1.8;;
49582;SDS011;36329;48.816;44.624;2023-06-22T14:19:02;6.1;;;1.6;;
49582;SDS011;36329;48.816;44.624;2023-06-22T14:22:05;3;;;1.8;;
49582;SDS011;36329;48.816;44.624;2023-06-22T14:25:07;2.6;;;1.6;;
49582;SDS011;36329;48.816;44.624;2023-06-22T14:28:10;5.6;;;2.1;;
49582;SDS011;36329;48.816;44.624;2023-06-22T14:31:11;3.8;;;1.8;;
49582;SDS011;36329;48.816;44.624;2023-06-22T14:34:14;3.2;;;1.6;;
49582;SDS011;36329;48.816;44.624;2023-06-22T14:37:16;7;;;1.8;;
49582;SDS011;36329;48.816;44.624;2023-06-22T14:40:18;4.7;;;1.9;;
49582;SDS011;36329;48.816;44.624;2023-06-22T14:43:21;3.9;;;1.8;;
49582;SDS011;36329;48.816;44.624;2023-06-22T14:46:23;3;;;1.7;;
49582;SDS011;36329;48.816;44.624;2023-06-22T14:49:25;5.2;;;2.1;;
49582;SDS011;36329;48.816;44.624;2023-06-22T14:52:27;5.4;;;1.8;;
49582;SDS011;36329;48.816;44.624;2023-06-22T14:55:29;4.9;;;1.8;;
49582;SDS011;36329;48.816;44.624;2023-06-22T14:58:31;5;;;1.8;;
49582;SDS011;36329;48.816;44.624;2023-06-22T15:01:33;5.8;;;1.9;;
49582;SDS011;36329;48.816;44.624;2023-06-22T15:04:35;2.7;;;2;;
49582;SDS011;36329;48.816;44.624;2023-06-22T15:07:37;4.4;;;1.7;;
49582;SDS011;36329;48.816;44.624;2023-06-22T15:10:39;5.4;;;2;;
49582;SDS011;36329;48.816;44.624;2023-06-22T15:13:41;9.2;;;2.7;;
49582;SDS011;36329;48.816;44.624;2023-06-22T15:16:44;8.8;;;3.3;;
49582;SDS011;36329;48.816;44.624;2023-06-22T15:19:46;5.9;;;2;;
49582;SDS011;36329;48.816;44.624;2023-06-22T15:22:48;6;;;2.1;;
49582;SDS011;36329;48.816;44.624;2023-06-22T15:25:50;7.3;;;2.3;;
49582;SDS011;36329;48.816;44.624;2023-06-22T15:28:52;7;;;2.5;;
49582;SDS011;36329;48.816;44.624;2023-06-22T15:31:54;4.1;;;2.2;;
49582;SDS011;36329;48.816;44.624;2023-06-22T15:34:56;6.4;;;2.6;;
49582;SDS011;36329;48.816;44.624;2023-06-22T15:38:00;5.2;;;2.7;;
49582;SDS011;36329;48.816;44.624;2023-06-22T15:41:02;10.2;;;3.1;;
49582;SDS011;36329;48.816;44.624;2023-06-22T15:44:04;9.3;;;3;;
49582;SDS011;36329;48.816;44.624;2023-06-22T15:47:06;8;;;2.8;;
49582;SDS011;36329;48.816;44.624;2023-06-22T15:50:08;8.2;;;3;;
49582;SDS011;36329;48.816;44.624;2023-06-22T15:53:10;10.5;;;3.1;;
49582;SDS011;36329;48.816;44.624;2023-06-22T15:56:12;12.8;;;3.8;;
49582;SDS011;36329;48.816;44.624;2023-06-22T15:59:14;6.8;;;3.5;;
49582;SDS011;36329;48.816;44.624;2023-06-22T16:02:16;7.6;;;3;;
49582;SDS011;36329;48.816;44.624;2023-06-22T16:05:18;10;;;2.8;;
49582;SDS011;36329;48.816;44.624;2023-06-22T16:08:20;6.8;;;2.6;;
49582;SDS011;36329;48.816;44.624;2023-06-22T16:11:22;7.6;;;2.6;;
49582;SDS011;36329;48.816;44.624;2023-06-22T16:14:24;7.6;;;2.4;;
49582;SDS011;36329;48.816;44.624;2023-06-22T16:17:26;5;;;2.4;;
49582;SDS011;36329;48.816;44.624;2023-06-22T16:20:28;4;;;2.4;;
49582;SDS011;36329;48.816;44.624;2023-06-22T16:23:30;6.2;;;2.7;;
49582;SDS011;36329;48.816;44.624;2023-06-22T16:26:37;5.8;;;2.8;;
49582;SDS011;36329;48.816;44.624;2023-06-22T16:29:41;5.9;;;2.6;;
49582;SDS011;36329;48.816;44.624;2023-06-22T16:32:49;6.5;;;2.8;;
49582;SDS011;36329;48.816;44.624;2023-06-22T16:35:52;5.4;;;2.6;;
49582;SDS011;36329;48.816;44.624;2023-06-22T16:38:54;9.4;;;3;;
49582;SDS011;36329;48.816;44.624;2023-06-22T16:41:56;4.8;;;2.8;;
49582;SDS011;36329;48.816;44.624;2023-06-22T16:44:57;5.1;;;2.6;;
49582;SDS011;36329;48.816;44.624;2023-06-22T16:47:59;7.5;;;3.5;;
49582;SDS011;36329;48.816;44.624;2023-06-22T16:51:01;8.1;;;3.2;;
49582;SDS011;36329;48.816;44.624;2023-06-22T16:54:03;8.2;;;3.4;;
49582;SDS011;36329;48.816;44.624;2023-06-22T16:57:06;9.9;;;3.5;;
49582;SDS011;36329;48.816;44.624;2023-06-22T17:00:08;8.6;;;3.1;;
49582;SDS011;36329;48.816;44.624;2023-06-22T17:03:13;8.1;;;3.5;;
49582;SDS011;36329;48.816;44.624;2023-06-22T17:06:20;9.8;;;3.5;;
49582;SDS011;36329;48.816;44.624;2023-06-22T17:09:22;8.3;;;3.4;;
49582;SDS011;36329;48.816;44.624;2023-06-22T17:12:28;8.7;;;3.7;;
49582;SDS011;36329;48.816;44.624;2023-06-22T17:15:29;15.5;;;3.7;;
49582;SDS011;36329;48.816;44.624;2023-06-22T17:18:33;20.2;;;4.1;;
49582;SDS011;36329;48.816;44.624;2023-06-22T17:21:36;13.8;;;4.1;;
49582;SDS011;36329;48.816;44.624;2023-06-22T17:24:39;15.9;;;3.7;;
49582;SDS011;36329;48.816;44.624;2023-06-22T17:27:41;20;;;3.9;;
49582;SDS011;36329;48.816;44.624;2023-06-22T17:30:52;24.1;;;4.1;;
49582;SDS011;36329;48.816;44.624;2023-06-22T17:34:11;20.8;;;4.7;;
49582;SDS011;36329;48.816;44.624;2023-06-22T17:37:14;13.4;;;4.7;;
49582;SDS011;36329;48.816;44.624;2023-06-22T17:40:17;23;;;5.1;;
49582;SDS011;36329;48.816;44.624;2023-06-22T17:43:21;28.3;;;5.8;;
49582;SDS011;36329;48.816;44.624;2023-06-22T17:46:23;15.1;;;5.2;;
49582;SDS011;36329;48.816;44.624;2023-06-22T17:49:26;22.6;;;6.1;;
49582;SDS011;36329;48.816;44.624;2023-06-22T17:52:30;22.7;;;6.2;;
49582;SDS011;36329;48.816;44.624;2023-06-22T17:55:32;19.7;;;7.2;;
49582;SDS011;36329;48.816;44.624;2023-06-22T17:58:35;16.7;;;7.3;;
49582;SDS011;36329;48.816;44.624;2023-06-22T18:01:37;22.7;;;7.6;;
49582;SDS011;36329;48.816;44.624;2023-06-22T18:04:39;22.2;;;7.4;;
49582;SDS011;36329;48.816;44.624;2023-06-22T18:07:41;21.7;;;7.9;;
49582;SDS011;36329;48.816;44.624;2023-06-22T18:10:43;20.3;;;7.7;;
49582;SDS011;36329;48.816;44.624;2023-06-22T18:13:48;32.4;;;8;;
49582;SDS011;36329;48.816;44.624;2023-06-22T18:16:50;22.9;;;7.6;;
49582;SDS011;36329;48.816;44.624;2023-06-22T18:19:53;26.1;;;8;;
49582;SDS011;36329;48.816;44.624;2023-06-22T18:22:57;20.7;;;7.7;;
49582;SDS011;36329;48.816;44.624;2023-06-22T18:25:59;22.4;;;8.2;;
49582;SDS011;36329;48.816;44.624;2023-06-22T18:29:02;31;;;9;;
49582;SDS011;36329;48.816;44.624;2023-06-22T18:32:05;29.4;;;9.8;;
49582;SDS011;36329;48.816;44.624;2023-06-22T18:35:08;30.3;;;9.8;;
49582;SDS011;36329;48.816;44.624;2023-06-22T18:38:11;40.3;;;10.5;;
49582;SDS011;36329;48.816;44.624;2023-06-22T18:41:21;33.9;;;9.9;;
49582;SDS011;36329;48.816;44.624;2023-06-22T18:44:25;31.8;;;9.2;;